EBBT weather

Brasschaat Airfield
Brasschaat, Antwerp, Belgium

Public forecast

Using degrees Celsius for public forecast. Weather courtesy of forecast.io.

METAR (pilot weather report)

Closest report is Woensdrecht Air Base, 8.8 nm (16.3 km) NW. Retrieved 2019/02/16 23:12 UTC (0 seconds ago):

EHWO 162312Z AUTO VRB02KT 6000 BR OVC240 01/00 Q1023 WHT

TAF (pilot weather forecast)

Forecast is more than 12 hours old.

Closest forecast is Woensdrecht Air Base, 8.8 nm (16.3 km) NW. Retrieved 2019/02/15 10:15 UTC (2 days ago):

TAF TAF EHWO 150910Z 1510/1522 16004KT CAVOK